CDT,Max TemperatureF,Mean TemperatureF,Min TemperatureF,Max Dew PointF,MeanDew PointF,Min DewpointF,Max Humidity, Mean Humidity, Min Humidity, Max Sea Level PressureIn, Mean Sea Level PressureIn, Min Sea Level PressureIn, Max VisibilityMiles, Mean VisibilityMiles, Min VisibilityMiles, Max Wind SpeedMPH, Mean Wind SpeedMPH, Max Gust SpeedMPH,PrecipitationIn, CloudCover, Events, WindDirDegrees
2013-7-1,84,68,51,51,44,38,86,47,21,30.21,30.17,30.13,10,9,7,15,6,22,0.00,0,,32
2013-7-2,86,68,50,46,42,38,74,42,19,30.20,30.14,30.05,10,10,8,9,3,16,0.00,1,,105
2013-7-3,89,71,53,49,45,40,72,40,19,30.07,29.98,29.87,10,10,7,18,7,24,0.00,1,,156
2013-7-4,94,79,63,51,46,41,59,34,16,29.92,29.85,29.77,10,10,10,18,11,28,0.00,0,,181
2013-7-5,100,85,69,56,51,47,54,33,18,29.81,29.74,29.66,10,10,10,23,14,34,0.02,0,,174
2013-7-6,103,86,69,63,58,51,75,47,18,29.87,29.73,29.62,10,10,6,24,14,32,0.15,2,Rain-Thunderstorm,183
2013-7-7,101,86,70,61,57,52,59,39,22,29.86,29.79,29.74,10,10,10,18,9,29,T,0,,178
2013-7-8,105,88,71,70,60,53,96,47,18,30.02,29.87,29.77,10,10,6,16,8,28,0.01,1,Rain,186
2013-7-9,105,90,75,67,59,54,64,39,21,29.95,29.86,29.81,10,10,6,32,10,44,T,1,Rain-Thunderstorm,243
2013-7-10,95,84,72,71,65,58,91,59,36,30.10,30.00,29.92,10,10,9,23,11,31,0.03,1,Rain,73
2013-7-11,98,85,71,66,64,60,78,54,29,30.07,29.93,29.81,10,10,10,18,11,25,0.00,3,,125
2013-7-12,105,90,74,67,61,55,73,42,20,29.88,29.81,29.73,10,10,10,18,12,31,0.00,1,,172
2013-7-13,108,94,79,64,58,51,60,34,16,29.89,29.80,29.72,10,10,10,20,13,26,0.00,0,,198
2013-7-14,88,76,63,67,64,61,87,61,45,30.09,29.93,29.81,10,10,10,23,10,28,0.00,2,,155
2013-7-15,90,77,63,64,58,50,93,61,27,30.16,30.11,30.04,10,10,10,20,5,26,0.00,2,,129
2013-7-16,85,75,65,64,63,60,97,76,44,30.27,30.20,30.13,10,10,9,20,8,30,0.00,6,,162
2013-7-17,91,78,64,64,62,59,93,62,35,30.30,30.22,30.13,10,10,10,17,8,26,0.00,1,,184
2013-7-18,95,82,68,65,62,58,87,54,31,30.15,30.02,29.89,10,10,10,23,11,33,0.00,0,,195
2013-7-19,99,85,71,69,64,60,79,58,29,29.95,29.90,29.81,10,10,9,17,9,33,0.02,1,Rain-Thunderstorm,174
2013-7-20,93,78,63,67,64,60,97,69,38,29.94,29.87,29.81,10,10,10,21,7,29,T,1,,104
2013-7-21,92,79,65,68,64,57,94,74,38,29.99,29.88,29.75,10,10,8,32,9,41,T,4,Rain,84
2013-7-22,101,86,70,70,57,44,94,50,15,29.93,29.79,29.71,10,10,7,23,10,36,T,1,,92
2013-7-23,89,79,69,67,62,60,81,58,40,29.96,29.86,29.78,10,10,10,21,11,30,0.00,2,,91
2013-7-24,93,78,62,64,60,53,100,68,27,30.16,30.04,29.94,10,8,2,13,5,18,0.00,2,,95
2013-7-25,81,73,64,72,64,58,100,87,52,30.15,30.04,29.93,10,6,1,26,11,37,2.38,6,Rain-Thunderstorm,65
2013-7-26,84,74,63,65,63,60,100,79,46,30.14,30.09,30.03,10,8,1,14,6,20,0.00,2,,1
2013-7-27,66,61,56,59,57,53,100,87,67,30.16,30.07,30.01,10,7,1,17,8,22,2.05,7,Rain-Thunderstorm,93
2013-7-28,63,59,55,62,58,54,100,97,93,30.09,30.02,29.97,10,9,2,13,9,,0.44,8,Rain,103
2013-7-29,75,69,63,68,65,62,100,92,78,30.05,29.97,29.91,10,7,1,13,9,,0.02,8,Rain,87
2013-7-30,82,73,64,67,65,63,100,87,58,30.13,30.07,30.01,10,7,0,7,4,,0.00,5,Fog,48
2013-7-31,85,75,64,70,66,64,100,86,51,30.22,30.14,30.05,10,6,0,15,5,,0.04,5,Fog-Rain,81